Time;durP1;ratioP1;P1;durP2;ratioP2;P2;SDS_P1;SDS_P2;PMS_P1;PMS_P2;Temp;Humidity;BMP_temperature;BMP_pressure;BME280_temperature;BME280_humidity;BME280_pressure;Samples;Min_cycle;Max_cycle;Signal;HPM_P1;HPM_P2
2024/04/16 05:01:17;;;;;;;7.50;3.00;;;;;;;;;;5912633;22;21045;-77
2024/04/16 05:03:43;;;;;;;10.60;2.40;;;;;;;;;;5215743;27;20460;-77
2024/04/16 05:06:09;;;;;;;4.33;1.93;;;;;;;;;;5243770;27;20560;-76
2024/04/16 05:08:35;;;;;;;9.00;1.90;;;;;;;;;;5213239;27;20475;-77
2024/04/16 05:11:01;;;;;;;8.17;2.30;;;;;;;;;;5208344;27;20484;-76
2024/04/16 05:13:27;;;;;;;9.07;2.33;;;;;;;;;;5210452;27;20461;-76
2024/04/16 05:15:53;;;;;;;4.73;2.13;;;;;;;;;;5210403;27;20542;-74
2024/04/16 05:18:19;;;;;;;5.80;2.57;;;;;;;;;;5182157;27;20569;-74
2024/04/16 05:20:48;;;;;;;6.10;1.97;;;;;;;;;;5210944;27;20461;-74
2024/04/16 05:23:14;;;;;;;2.70;1.33;;;;;;;;;;5210771;27;20461;-74
2024/04/16 05:25:40;;;;;;;5.70;1.80;;;;;;;;;;5192432;27;20722;-74
2024/04/16 05:28:06;;;;;;;6.27;2.10;;;;;;;;;;5148331;27;20867;-75
2024/04/16 05:30:32;;;;;;;3.77;1.90;;;;;;;;;;5178018;27;20523;-74
2024/04/16 05:32:58;;;;;;;5.47;2.17;;;;;;;;;;5178004;27;20620;-75
2024/04/16 05:35:24;;;;;;;6.83;2.10;;;;;;;;;;5177990;27;20503;-73
2024/04/16 05:37:50;;;;;;;3.20;1.70;;;;;;;;;;5177656;27;20458;-73
2024/04/16 05:40:17;;;;;;;4.20;2.10;;;;;;;;;;5177830;27;20458;-74
2024/04/16 05:42:44;;;;;;;4.67;2.77;;;;;;;;;;5179265;27;20478;-69
2024/04/16 05:45:10;;;;;;;8.87;3.10;;;;;;;;;;5176702;27;21050;-71
2024/04/16 05:47:36;;;;;;;6.13;2.70;;;;;;;;;;5179003;27;20470;-71
2024/04/16 05:50:02;;;;;;;5.30;2.10;;;;;;;;;;5177953;27;20501;-71
2024/04/16 05:52:28;;;;;;;3.10;1.67;;;;;;;;;;5178922;27;20486;-75
2024/04/16 05:54:54;;;;;;;5.80;2.33;;;;;;;;;;5180070;27;20451;-75
2024/04/16 05:57:20;;;;;;;3.17;1.87;;;;;;;;;;5179270;27;20873;-77
2024/04/16 05:59:46;;;;;;;8.33;1.83;;;;;;;;;;5184024;27;20592;-76
2024/04/16 06:02:12;;;;;;;3.10;2.10;;;;;;;;;;5213201;27;20519;-76
2024/04/16 06:04:38;;;;;;;13.93;2.63;;;;;;;;;;5183083;27;20481;-77
2024/04/16 06:07:04;;;;;;;7.57;2.20;;;;;;;;;;5182151;27;20594;-76
2024/04/16 06:09:30;;;;;;;11.97;2.87;;;;;;;;;;5182539;27;20513;-76
2024/04/16 06:11:56;;;;;;;6.50;2.57;;;;;;;;;;5211307;27;20469;-76
2024/04/16 06:14:22;;;;;;;18.83;3.40;;;;;;;;;;5210834;27;20456;-76
2024/04/16 06:16:48;;;;;;;9.73;3.00;;;;;;;;;;5211114;27;20453;-76
2024/04/16 06:19:14;;;;;;;9.63;2.57;;;;;;;;;;5211344;27;20507;-76
2024/04/16 06:21:40;;;;;;;12.30;2.60;;;;;;;;;;5211040;27;20477;-77
2024/04/16 06:24:06;;;;;;;9.10;2.63;;;;;;;;;;5182721;27;20559;-76
2024/04/16 06:26:32;;;;;;;4.37;2.00;;;;;;;;;;5210743;27;20546;-76
2024/04/16 06:28:58;;;;;;;10.00;2.77;;;;;;;;;;5210497;27;20461;-76
2024/04/16 06:31:24;;;;;;;12.03;3.10;;;;;;;;;;5210747;27;20660;-76
2024/04/16 06:33:50;;;;;;;10.73;2.50;;;;;;;;;;5210780;27;20457;-77
2024/04/16 06:36:17;;;;;;;4.50;2.23;;;;;;;;;;5211889;27;20457;-76
2024/04/16 06:38:43;;;;;;;14.27;2.90;;;;;;;;;;5210629;27;20457;-76
2024/04/16 06:41:09;;;;;;;5.50;2.20;;;;;;;;;;5209687;27;20849;-76
2024/04/16 06:43:35;;;;;;;12.53;2.60;;;;;;;;;;5209672;27;20568;-77
2024/04/16 06:46:02;;;;;;;5.10;2.10;;;;;;;;;;5180950;27;20461;-77
2024/04/16 06:48:30;;;;;;;4.47;2.00;;;;;;;;;;5209249;27;20658;-76
2024/04/16 06:50:56;;;;;;;9.30;2.17;;;;;;;;;;5208926;27;20800;-76
2024/04/16 06:53:22;;;;;;;5.47;2.00;;;;;;;;;;5209474;27;20535;-77
2024/04/16 06:56:07;;;;;;;12.07;2.50;;;;;;;;;;5209567;27;20468;-77
2024/04/16 06:58:33;;;;;;;4.77;2.07;;;;;;;;;;5208762;27;20971;-76
2024/04/16 07:01:00;;;;;;;6.47;2.20;;;;;;;;;;5208740;27;20485;-77
2024/04/16 07:03:27;;;;;;;8.83;2.07;;;;;;;;;;5209615;27;20980;-77
2024/04/16 07:05:53;;;;;;;8.67;2.03;;;;;;;;;;5189680;27;20509;-77
2024/04/16 07:08:19;;;;;;;12.50;2.40;;;;;;;;;;5214787;27;20454;-77
2024/04/16 07:10:46;;;;;;;6.43;1.90;;;;;;;;;;5213887;27;21035;-76
2024/04/16 07:13:12;;;;;;;8.10;2.27;;;;;;;;;;5212917;27;20859;-78
2024/04/16 07:15:39;;;;;;;5.03;1.93;;;;;;;;;;5212256;27;20544;-77
2024/04/16 07:18:05;;;;;;;5.73;2.00;;;;;;;;;;5212030;27;20509;-77
2024/04/16 07:20:31;;;;;;;11.03;2.07;;;;;;;;;;5212720;27;20480;-77
2024/04/16 07:22:57;;;;;;;14.33;3.60;;;;;;;;;;5212941;27;20980;-77
2024/04/16 07:25:23;;;;;;;8.63;2.00;;;;;;;;;;5212207;27;20460;-77
2024/04/16 07:27:49;;;;;;;9.57;1.93;;;;;;;;;;5211461;27;20513;-78
2024/04/16 07:30:18;;;;;;;6.40;1.80;;;;;;;;;;5212159;27;20452;-77
2024/04/16 07:32:44;;;;;;;8.80;2.27;;;;;;;;;;5218767;27;20505;-77
2024/04/16 07:35:10;;;;;;;7.00;1.90;;;;;;;;;;5221473;27;21031;-77
2024/04/16 07:37:36;;;;;;;7.10;1.90;;;;;;;;;;5211614;27;20448;-77
2024/04/16 07:40:03;;;;;;;2.90;1.53;;;;;;;;;;5212854;27;20461;-78
2024/04/16 07:42:28;;;;;;;5.80;1.50;;;;;;;;;;5212919;27;20548;-78
2024/04/16 07:44:54;;;;;;;2.77;1.50;;;;;;;;;;5212100;27;20453;-75
2024/04/16 07:47:21;;;;;;;6.17;1.90;;;;;;;;;;5212031;27;20512;-75
2024/04/16 07:49:47;;;;;;;3.20;1.87;;;;;;;;;;5219949;27;20529;-75
2024/04/16 07:52:13;;;;;;;4.00;1.80;;;;;;;;;;5219941;27;20562;-75
2024/04/16 07:54:39;;;;;;;4.57;1.63;;;;;;;;;;5212883;27;20445;-75
2024/04/16 07:57:05;;;;;;;6.27;2.03;;;;;;;;;;5212187;27;20457;-76
2024/04/16 07:59:31;;;;;;;3.93;2.00;;;;;;;;;;5184257;27;20515;-76
2024/04/16 08:01:57;;;;;;;15.50;1.50;;;;;;;;;;5212565;27;20544;-76
2024/04/16 08:04:23;;;;;;;2.50;1.30;;;;;;;;;;5212699;27;20452;-76
2024/04/16 08:06:49;;;;;;;2.50;1.40;;;;;;;;;;5212615;27;20441;-76
2024/04/16 08:09:15;;;;;;;6.07;1.80;;;;;;;;;;5211792;27;20448;-77
2024/04/16 08:11:41;;;;;;;3.53;1.50;;;;;;;;;;5212311;27;20857;-75
2024/04/16 08:14:07;;;;;;;8.73;1.77;;;;;;;;;;5211376;27;20523;-76
2024/04/16 08:16:33;;;;;;;4.53;1.50;;;;;;;;;;5210261;27;20445;-76
2024/04/16 08:18:59;;;;;;;5.33;1.80;;;;;;;;;;5182751;27;20464;-77
2024/04/16 08:21:25;;;;;;;4.07;1.63;;;;;;;;;;5211519;27;20468;-77
2024/04/16 08:23:54;;;;;;;4.17;1.87;;;;;;;;;;5211487;27;20585;-76
2024/04/16 08:26:20;;;;;;;4.97;1.60;;;;;;;;;;5211450;27;20607;-76
2024/04/16 08:28:46;;;;;;;6.80;1.70;;;;;;;;;;5211436;27;20449;-76
2024/04/16 08:31:12;;;;;;;4.50;1.53;;;;;;;;;;5211335;27;20960;-75
2024/04/16 08:33:39;;;;;;;4.70;1.93;;;;;;;;;;5211549;27;20468;-76
2024/04/16 08:36:05;;;;;;;11.00;2.00;;;;;;;;;;5211449;27;20573;-74
2024/04/16 08:38:31;;;;;;;5.13;1.80;;;;;;;;;;5211651;27;20472;-76
2024/04/16 08:40:57;;;;;;;5.10;2.10;;;;;;;;;;5210787;27;20473;-76
2024/04/16 08:43:24;;;;;;;3.10;1.23;;;;;;;;;;5211232;27;20457;-76
2024/04/16 08:45:51;;;;;;;5.57;1.73;;;;;;;;;;5211390;27;20461;-76
2024/04/16 08:48:18;;;;;;;2.17;1.23;;;;;;;;;;5211231;27;20753;-77
2024/04/16 08:50:45;;;;;;;7.37;1.50;;;;;;;;;;5211678;27;20525;-77
2024/04/16 08:53:12;;;;;;;3.93;1.87;;;;;;;;;;5211053;27;20730;-76
2024/04/16 08:55:39;;;;;;;1.93;1.37;;;;;;;;;;5211264;27;20505;-76
2024/04/16 08:58:05;;;;;;;5.93;1.37;;;;;;;;;;5181670;27;20469;-76
2024/04/16 09:00:32;;;;;;;6.20;1.93;;;;;;;;;;5211052;27;21120;-75
2024/04/16 09:02:58;;;;;;;3.37;1.47;;;;;;;;;;5210971;27;21036;-76
2024/04/16 09:05:24;;;;;;;2.23;1.50;;;;;;;;;;5210868;27;20449;-76
2024/04/16 09:07:50;;;;;;;12.23;1.87;;;;;;;;;;5210620;27;20465;-76
2024/04/16 09:10:20;;;;;;;1.93;1.10;;;;;;;;;;5211019;27;20566;-75
2024/04/16 09:12:47;;;;;;;5.70;1.60;;;;;;;;;;5210682;27;20501;-76
2024/04/16 09:15:13;;;;;;;4.50;1.40;;;;;;;;;;5211089;27;20516;-76
2024/04/16 09:17:46;;;;;;;5.83;1.70;;;;;;;;;;5210248;27;20465;-75
2024/04/16 09:20:19;;;;;;;4.70;1.97;;;;;;;;;;5210610;27;20509;-77
2024/04/16 09:22:48;;;;;;;5.67;1.67;;;;;;;;;;5210688;27;20496;-77
2024/04/16 09:25:15;;;;;;;6.27;1.60;;;;;;;;;;5181250;27;20461;-77
2024/04/16 09:27:41;;;;;;;3.83;1.70;;;;;;;;;;5210574;27;20546;-76
2024/04/16 09:30:11;;;;;;;10.00;2.00;;;;;;;;;;5210427;27;20949;-76
2024/04/16 09:32:37;;;;;;;8.33;2.20;;;;;;;;;;5210367;27;20944;-76
2024/04/16 09:35:03;;;;;;;4.33;2.00;;;;;;;;;;5210353;27;20513;-76
2024/04/16 09:37:29;;;;;;;8.60;1.50;;;;;;;;;;5181545;27;20804;-76
2024/04/16 09:39:59;;;;;;;2.20;1.40;;;;;;;;;;5181844;27;20508;-77
2024/04/16 09:42:25;;;;;;;5.40;1.77;;;;;;;;;;5182491;27;20519;-77
2024/04/16 09:44:52;;;;;;;6.93;1.77;;;;;;;;;;5185480;27;21068;-78
2024/04/16 09:47:18;;;;;;;4.07;1.30;;;;;;;;;;5211527;27;20570;-77
2024/04/16 09:49:45;;;;;;;9.43;1.30;;;;;;;;;;5213525;27;20850;-78
2024/04/16 09:52:12;;;;;;;6.47;1.40;;;;;;;;;;5211866;27;20469;-77
2024/04/16 09:54:41;;;;;;;3.20;1.53;;;;;;;;;;5212340;27;20445;-77
2024/04/16 09:57:08;;;;;;;2.50;1.20;;;;;;;;;;5211055;27;20517;-77
2024/04/16 09:59:34;;;;;;;5.93;1.77;;;;;;;;;;5210673;27;20448;-77
2024/04/16 10:02:02;;;;;;;4.37;1.47;;;;;;;;;;5210686;27;20477;-77
2024/04/16 10:04:28;;;;;;;2.80;1.23;;;;;;;;;;5211458;27;20529;-77
2024/04/16 10:06:54;;;;;;;2.90;1.30;;;;;;;;;;5188706;27;20453;-79
2024/04/16 10:09:20;;;;;;;1.13;1.03;;;;;;;;;;5218837;27;20532;-77
2024/04/16 10:11:48;;;;;;;4.43;1.60;;;;;;;;;;5220260;27;20529;-78
2024/04/16 10:14:15;;;;;;;4.80;1.20;;;;;;;;;;5189589;27;20504;-77
2024/04/16 10:16:42;;;;;;;4.83;1.00;;;;;;;;;;5216108;27;21104;-76
2024/04/16 10:19:08;;;;;;;2.27;1.03;;;;;;;;;;5183892;27;20521;-77
2024/04/16 10:21:38;;;;;;;5.77;1.23;;;;;;;;;;5180448;27;21052;-77
2024/04/16 10:24:08;;;;;;;3.63;1.40;;;;;;;;;;5209363;27;20452;-77
2024/04/16 10:26:41;;;;;;;2.37;1.63;;;;;;;;;;5209015;27;20457;-77
2024/04/16 10:29:17;;;;;;;2.73;1.40;;;;;;;;;;5209367;27;20461;-77
2024/04/16 10:31:44;;;;;;;2.37;1.17;;;;;;;;;;5179974;27;20484;-78
2024/04/16 10:34:23;;;;;;;2.93;1.10;;;;;;;;;;5209492;27;20449;-76
2024/04/16 10:36:52;;;;;;;9.63;1.27;;;;;;;;;;5209744;27;20503;-78
2024/04/16 10:39:18;;;;;;;7.27;2.13;;;;;;;;;;5211298;27;20505;-78
2024/04/16 10:41:51;;;;;;;1.90;1.10;;;;;;;;;;5211340;27;20468;-78
2024/04/16 10:44:18;;;;;;;2.00;1.33;;;;;;;;;;5183364;27;20501;-78
2024/04/16 10:46:44;;;;;;;9.23;1.00;;;;;;;;;;5185113;27;20453;-78
2024/04/16 10:49:14;;;;;;;2.40;1.03;;;;;;;;;;5211220;27;20457;-78
2024/04/16 10:51:40;;;;;;;1.57;1.20;;;;;;;;;;5183319;27;20519;-78
2024/04/16 10:54:09;;;;;;;1.80;0.90;;;;;;;;;;5211205;27;20818;-78
2024/04/16 10:56:38;;;;;;;1.13;0.90;;;;;;;;;;5181022;27;20493;-78
2024/04/16 10:59:07;;;;;;;2.60;1.10;;;;;;;;;;5181756;27;20461;-78
2024/04/16 11:01:34;;;;;;;3.23;1.53;;;;;;;;;;5213200;27;20472;-78
2024/04/16 11:04:18;;;;;;;3.77;1.07;;;;;;;;;;5182059;27;20854;-78
2024/04/16 11:06:45;;;;;;;2.33;1.33;;;;;;;;;;5210210;27;20472;-79
2024/04/16 11:09:12;;;;;;;1.37;0.90;;;;;;;;;;5210259;27;20453;-78
2024/04/16 11:11:38;;;;;;;5.03;1.20;;;;;;;;;;5180705;27;20995;-78
2024/04/16 11:16:33;;;;;;;2.77;1.63;;;;;;;;;;5240023;27;20467;-78
2024/04/16 11:18:59;;;;;;;2.93;1.23;;;;;;;;;;5213028;27;20467;-77
2024/04/16 11:21:29;;;;;;;6.03;1.23;;;;;;;;;;5242474;27;20860;-77
2024/04/16 11:23:56;;;;;;;1.70;1.60;;;;;;;;;;5242266;27;20540;-76
2024/04/16 11:26:22;;;;;;;1.30;1.10;;;;;;;;;;5209821;27;20465;-77
2024/04/16 11:28:52;;;;;;;0.87;0.80;;;;;;;;;;5180184;27;20449;-77
2024/04/16 11:31:18;;;;;;;8.90;0.90;;;;;;;;;;5209258;27;20913;-77
2024/04/16 11:33:44;;;;;;;2.73;1.13;;;;;;;;;;5208688;27;20453;-79
2024/04/16 11:36:10;;;;;;;1.30;0.97;;;;;;;;;;5207931;27;20465;-77
2024/04/16 11:38:37;;;;;;;1.63;1.00;;;;;;;;;;5208809;27;20984;-77
2024/04/16 11:41:03;;;;;;;5.00;1.30;;;;;;;;;;5208865;27;20748;-77
2024/04/16 11:43:30;;;;;;;1.00;0.90;;;;;;;;;;5208918;27;20870;-78
2024/04/16 11:45:56;;;;;;;5.70;1.00;;;;;;;;;;5208512;27;20477;-78
2024/04/16 11:48:22;;;;;;;5.03;1.73;;;;;;;;;;5208974;27;20498;-78
2024/04/16 11:50:48;;;;;;;3.60;1.60;;;;;;;;;;5210127;27;20879;-77
2024/04/16 11:53:14;;;;;;;1.43;0.83;;;;;;;;;;5211847;27;20505;-78
2024/04/16 11:55:40;;;;;;;1.90;1.00;;;;;;;;;;5211747;27;20525;-77
2024/04/16 11:58:08;;;;;;;0.97;0.87;;;;;;;;;;5213284;27;20565;-77
2024/04/16 12:00:34;;;;;;;1.53;0.80;;;;;;;;;;5212466;27;20448;-77
2024/04/16 12:03:03;;;;;;;6.40;1.40;;;;;;;;;;5214326;27;20453;-76
2024/04/16 12:05:29;;;;;;;2.50;1.00;;;;;;;;;;5216101;27;20998;-76
2024/04/16 12:07:55;;;;;;;1.63;1.10;;;;;;;;;;5188359;27;20502;-76
2024/04/16 12:10:22;;;;;;;0.90;0.83;;;;;;;;;;5216367;27;20478;-76
2024/04/16 12:12:48;;;;;;;1.97;1.13;;;;;;;;;;5199560;27;20478;-77
2024/04/16 12:15:16;;;;;;;2.27;1.00;;;;;;;;;;5201579;27;20545;-75
2024/04/16 12:17:43;;;;;;;4.53;1.20;;;;;;;;;;5187773;27;20906;-74
2024/04/16 12:20:09;;;;;;;1.23;0.87;;;;;;;;;;5207104;27;20521;-74
2024/04/16 12:22:35;;;;;;;1.73;1.40;;;;;;;;;;5217187;27;20453;-76
2024/04/16 12:25:01;;;;;;;3.30;1.13;;;;;;;;;;5217680;27;20614;-75
2024/04/16 12:27:28;;;;;;;1.40;1.00;;;;;;;;;;5214944;27;20512;-75
2024/04/16 12:29:54;;;;;;;2.55;1.13;;;;;;;;;;5215379;27;20373;-75
2024/04/16 12:32:20;;;;;;;3.13;1.07;;;;;;;;;;5211379;27;20639;-76
2024/04/16 12:34:46;;;;;;;1.60;0.93;;;;;;;;;;5195711;27;20478;-76
2024/04/16 12:37:12;;;;;;;4.93;1.20;;;;;;;;;;5149376;27;20576;-76
2024/04/16 12:39:38;;;;;;;2.03;1.00;;;;;;;;;;5187950;27;20469;-76
2024/04/16 12:42:04;;;;;;;2.57;1.00;;;;;;;;;;5183911;27;20474;-76
2024/04/16 12:44:30;;;;;;;2.03;1.00;;;;;;;;;;5149378;27;20614;-76
2024/04/16 12:46:56;;;;;;;2.83;1.00;;;;;;;;;;5189401;27;20489;-76
2024/04/16 12:49:23;;;;;;;2.20;1.30;;;;;;;;;;5188436;27;20537;-77
2024/04/16 12:51:49;;;;;;;2.93;0.90;;;;;;;;;;5178053;27;20882;-76
2024/04/16 12:54:15;;;;;;;2.27;1.30;;;;;;;;;;5192883;27;20469;-76
2024/04/16 12:56:41;;;;;;;1.93;1.00;;;;;;;;;;5210605;27;20521;-75
2024/04/16 12:59:07;;;;;;;3.77;1.00;;;;;;;;;;5209616;27;20469;-76
2024/04/16 13:01:33;;;;;;;2.13;1.50;;;;;;;;;;5206863;27;20469;-76
2024/04/16 13:03:59;;;;;;;1.80;0.90;;;;;;;;;;5198857;27;20595;-78
2024/04/16 13:06:24;;;;;;;3.37;1.10;;;;;;;;;;5206620;27;20493;-78
2024/04/16 13:08:50;;;;;;;4.13;1.03;;;;;;;;;;5186511;27;20545;-78
2024/04/16 13:11:16;;;;;;;1.93;0.90;;;;;;;;;;5178644;27;20558;-77
2024/04/16 13:13:42;;;;;;;1.50;1.10;;;;;;;;;;5179730;27;20513;-76
2024/04/16 13:16:08;;;;;;;1.90;1.10;;;;;;;;;;5152525;27;20866;-77
2024/04/16 13:18:34;;;;;;;1.50;0.87;;;;;;;;;;5187507;27;20516;-77
2024/04/16 13:21:00;;;;;;;2.10;0.90;;;;;;;;;;5210474;27;20500;-78
2024/04/16 13:23:27;;;;;;;2.17;1.00;;;;;;;;;;5210169;27;20469;-76
2024/04/16 13:25:53;;;;;;;3.73;1.20;;;;;;;;;;5210132;27;20461;-74
2024/04/16 13:28:19;;;;;;;1.57;0.90;;;;;;;;;;5200323;27;20465;-76
2024/04/16 13:30:57;;;;;;;2.60;0.97;;;;;;;;;;5190002;27;20465;-75
2024/04/16 13:33:24;;;;;;;3.83;1.10;;;;;;;;;;5210312;27;20445;-74
2024/04/16 13:35:53;;;;;;;3.63;1.20;;;;;;;;;;5182142;27;20538;-74
2024/04/16 13:38:20;;;;;;;2.60;1.83;;;;;;;;;;5202932;27;20470;-74
2024/04/16 13:40:46;;;;;;;2.13;0.97;;;;;;;;;;5179198;27;21017;-73
2024/04/16 13:43:12;;;;;;;6.70;1.50;;;;;;;;;;5205471;27;20461;-73
2024/04/16 13:45:38;;;;;;;0.83;0.77;;;;;;;;;;5209895;27;20925;-74
2024/04/16 13:48:04;;;;;;;4.40;1.00;;;;;;;;;;5198033;27;20541;-74
2024/04/16 13:50:30;;;;;;;2.03;1.10;;;;;;;;;;5195704;27;20484;-74
2024/04/16 13:52:56;;;;;;;0.80;0.80;;;;;;;;;;5203017;27;20473;-75
2024/04/16 13:55:22;;;;;;;1.70;1.10;;;;;;;;;;5192775;27;20548;-74
2024/04/16 13:57:48;;;;;;;2.70;1.00;;;;;;;;;;5209403;27;20457;-74
2024/04/16 14:00:16;;;;;;;1.13;1.03;;;;;;;;;;5210088;27;20457;-76
2024/04/16 14:02:42;;;;;;;1.53;0.90;;;;;;;;;;5199639;27;20999;-74
2024/04/16 14:05:08;;;;;;;1.90;0.90;;;;;;;;;;5192308;27;20486;-74
2024/04/16 14:07:34;;;;;;;0.90;0.80;;;;;;;;;;5190679;27;20474;-76
2024/04/16 14:10:00;;;;;;;7.03;1.63;;;;;;;;;;5177716;27;20542;-79
2024/04/16 14:12:26;;;;;;;1.67;1.13;;;;;;;;;;5152541;27;20978;-76
2024/04/16 14:14:52;;;;;;;1.13;0.90;;;;;;;;;;5208732;27;20488;-76
2024/04/16 14:17:18;;;;;;;1.93;0.90;;;;;;;;;;5209177;27;20457;-75
2024/04/16 14:19:44;;;;;;;1.17;0.87;;;;;;;;;;5208253;27;20533;-76
2024/04/16 14:22:09;;;;;;;2.77;1.07;;;;;;;;;;5177127;27;20509;-76
2024/04/16 14:24:37;;;;;;;4.13;1.27;;;;;;;;;;5155020;27;20546;-77
2024/04/16 14:27:03;;;;;;;2.50;0.97;;;;;;;;;;5208968;27;20463;-75
2024/04/16 14:29:30;;;;;;;5.07;1.10;;;;;;;;;;5214880;27;20525;-77
2024/04/16 14:31:59;;;;;;;3.40;1.00;;;;;;;;;;5210353;27;21065;-76
2024/04/16 14:34:25;;;;;;;5.80;1.47;;;;;;;;;;5209464;27;20550;-76
2024/04/16 14:36:53;;;;;;;5.17;1.73;;;;;;;;;;5179583;27;20476;-76
2024/04/16 14:39:19;;;;;;;4.77;1.17;;;;;;;;;;5193825;27;20525;-75
2024/04/16 14:41:46;;;;;;;5.03;1.17;;;;;;;;;;5178839;27;20470;-76
2024/04/16 14:44:12;;;;;;;1.30;1.20;;;;;;;;;;5206108;27;21008;-77
2024/04/16 14:46:38;;;;;;;1.47;0.90;;;;;;;;;;5188197;27;20562;-78
2024/04/16 14:49:05;;;;;;;1.50;1.00;;;;;;;;;;5209327;27;20564;-75
2024/04/16 14:51:31;;;;;;;1.07;0.80;;;;;;;;;;5208485;27;20481;-76
2024/04/16 14:53:57;;;;;;;4.13;1.60;;;;;;;;;;5209443;27;20996;-76
2024/04/16 14:56:23;;;;;;;3.20;1.10;;;;;;;;;;5207966;27;21001;-76
2024/04/16 14:58:49;;;;;;;1.77;1.00;;;;;;;;;;5206697;27;20829;-76
2024/04/16 15:01:15;;;;;;;2.50;1.13;;;;;;;;;;5191069;27;20823;-76
2024/04/16 15:03:41;;;;;;;1.67;1.00;;;;;;;;;;5193312;27;20466;-76
2024/04/16 15:06:07;;;;;;;1.03;0.97;;;;;;;;;;5208980;27;20520;-77
2024/04/16 15:08:33;;;;;;;1.00;0.90;;;;;;;;;;5206584;27;21020;-75
2024/04/16 15:10:59;;;;;;;2.00;1.20;;;;;;;;;;5186239;27;20467;-76
2024/04/16 15:13:25;;;;;;;1.13;0.93;;;;;;;;;;5175895;27;20454;-75
2024/04/16 15:15:55;;;;;;;1.83;1.17;;;;;;;;;;5201827;27;20476;-75
2024/04/16 15:18:21;;;;;;;1.67;1.10;;;;;;;;;;5189424;27;20467;-75
2024/04/16 15:20:46;;;;;;;2.70;1.30;;;;;;;;;;5176492;27;20451;-75
2024/04/16 15:23:12;;;;;;;1.23;1.03;;;;;;;;;;5176485;27;20561;-74
2024/04/16 15:25:39;;;;;;;0.93;0.90;;;;;;;;;;5194584;27;20532;-76
2024/04/16 15:28:05;;;;;;;2.10;0.97;;;;;;;;;;5184319;27;20478;-77
2024/04/16 15:30:31;;;;;;;1.80;0.90;;;;;;;;;;5201717;27;20477;-75
2024/04/16 15:32:57;;;;;;;1.53;1.00;;;;;;;;;;5207244;27;20530;-74
2024/04/16 15:35:23;;;;;;;1.90;1.10;;;;;;;;;;5211782;27;21152;-75
2024/04/16 15:37:49;;;;;;;3.73;1.40;;;;;;;;;;5211366;27;20453;-75
2024/04/16 15:40:15;;;;;;;2.43;1.17;;;;;;;;;;5211705;27;20546;-74
2024/04/16 15:42:41;;;;;;;2.37;0.90;;;;;;;;;;5211763;27;20464;-74
2024/04/16 15:45:07;;;;;;;1.70;1.40;;;;;;;;;;5212030;27;20529;-74
2024/04/16 15:47:33;;;;;;;2.10;1.00;;;;;;;;;;5209599;27;20469;-74
2024/04/16 15:49:59;;;;;;;1.57;0.90;;;;;;;;;;5210895;27;20508;-74
2024/04/16 15:52:26;;;;;;;2.93;1.30;;;;;;;;;;5208782;27;20540;-75
2024/04/16 15:54:52;;;;;;;1.80;1.10;;;;;;;;;;5211610;27;20887;-73
2024/04/16 15:57:18;;;;;;;2.33;1.07;;;;;;;;;;5211067;27;20457;-75
2024/04/16 15:59:47;;;;;;;1.30;1.07;;;;;;;;;;5215291;27;20835;-74
2024/04/16 16:02:13;;;;;;;1.27;0.90;;;;;;;;;;5187946;27;20472;-74
2024/04/16 16:04:39;;;;;;;5.50;0.93;;;;;;;;;;5180373;27;20530;-74
2024/04/16 16:07:05;;;;;;;1.47;0.80;;;;;;;;;;5183561;27;20511;-74
2024/04/16 16:09:32;;;;;;;2.03;1.10;;;;;;;;;;5182542;27;20455;-74
2024/04/16 16:11:58;;;;;;;0.97;0.83;;;;;;;;;;5212916;27;20453;-75
2024/04/16 16:14:24;;;;;;;3.20;1.13;;;;;;;;;;5211228;27;20536;-72
2024/04/16 16:16:50;;;;;;;2.23;1.00;;;;;;;;;;5202955;27;20613;-73
2024/04/16 16:19:16;;;;;;;1.37;0.80;;;;;;;;;;5199453;27;20485;-74
2024/04/16 16:21:43;;;;;;;1.43;1.00;;;;;;;;;;5194298;27;20534;-73
2024/04/16 16:24:09;;;;;;;1.47;1.20;;;;;;;;;;5188103;27;20467;-74
2024/04/16 16:26:34;;;;;;;1.90;0.90;;;;;;;;;;5199698;27;20478;-73
2024/04/16 16:29:00;;;;;;;1.37;1.10;;;;;;;;;;5178657;27;20462;-72
2024/04/16 16:31:32;;;;;;;2.30;1.00;;;;;;;;;;5203914;27;20484;-73
2024/04/16 16:33:58;;;;;;;2.40;1.30;;;;;;;;;;5211410;27;20449;-74
2024/04/16 16:36:24;;;;;;;1.60;0.90;;;;;;;;;;5202862;27;20591;-74
2024/04/16 16:38:50;;;;;;;1.13;1.03;;;;;;;;;;5207967;27;20523;-73
2024/04/16 16:41:16;;;;;;;0.90;0.80;;;;;;;;;;5193223;27;20469;-73
2024/04/16 16:43:41;;;;;;;2.73;1.37;;;;;;;;;;5211897;27;20453;-73
2024/04/16 16:46:07;;;;;;;4.33;0.93;;;;;;;;;;5213653;27;20562;-73
2024/04/16 16:48:33;;;;;;;2.20;0.97;;;;;;;;;;5212828;27;20452;-73
2024/04/16 16:50:59;;;;;;;6.13;1.13;;;;;;;;;;5213891;27;20472;-72
2024/04/16 16:53:25;;;;;;;1.20;1.00;;;;;;;;;;5215040;27;20521;-74
2024/04/16 16:55:52;;;;;;;2.70;1.20;;;;;;;;;;5223894;27;20477;-76
2024/04/16 16:58:18;;;;;;;2.80;1.07;;;;;;;;;;5230195;27;20505;-76
2024/04/16 17:00:44;;;;;;;2.33;1.40;;;;;;;;;;5224423;27;20453;-76
2024/04/16 17:03:10;;;;;;;1.10;1.00;;;;;;;;;;5155533;27;20531;-76
2024/04/16 17:05:36;;;;;;;0.97;0.87;;;;;;;;;;5213747;27;20457;-76
2024/04/16 17:08:02;;;;;;;2.30;1.20;;;;;;;;;;5219815;27;20473;-76
2024/04/16 17:10:28;;;;;;;1.70;1.47;;;;;;;;;;5181252;27;20570;-75
2024/04/16 17:12:55;;;;;;;2.10;1.30;;;;;;;;;;5180851;27;20443;-76
2024/04/16 17:15:21;;;;;;;3.23;1.00;;;;;;;;;;5179985;27;21056;-76
2024/04/16 17:17:47;;;;;;;1.80;1.30;;;;;;;;;;5179870;27;20515;-76
2024/04/16 17:20:13;;;;;;;1.33;1.20;;;;;;;;;;5151247;27;20602;-76
2024/04/16 17:22:39;;;;;;;1.27;1.20;;;;;;;;;;5151794;27;20795;-76
2024/04/16 17:25:05;;;;;;;1.23;1.20;;;;;;;;;;5150861;27;20516;-76
2024/04/16 17:27:31;;;;;;;1.80;1.20;;;;;;;;;;5157526;27;20601;-77
2024/04/16 17:29:57;;;;;;;1.27;1.10;;;;;;;;;;5212879;27;21117;-76
2024/04/16 17:32:23;;;;;;;2.30;1.37;;;;;;;;;;5210671;27;21032;-76
2024/04/16 17:34:48;;;;;;;3.80;1.43;;;;;;;;;;5212219;27;20473;-77
2024/04/16 17:37:14;;;;;;;1.67;1.20;;;;;;;;;;5211882;27;20577;-76
2024/04/16 17:39:41;;;;;;;2.60;1.10;;;;;;;;;;5213124;27;20513;-76
2024/04/16 17:42:07;;;;;;;2.63;1.57;;;;;;;;;;5212412;27;20554;-76
2024/04/16 17:44:33;;;;;;;3.83;1.33;;;;;;;;;;5211468;27;20489;-76
2024/04/16 17:46:59;;;;;;;2.20;1.00;;;;;;;;;;5212354;27;21084;-76
2024/04/16 17:49:25;;;;;;;3.57;1.70;;;;;;;;;;5209560;27;20558;-76
2024/04/16 17:51:52;;;;;;;3.03;1.40;;;;;;;;;;5212161;27;20453;-76
2024/04/16 17:54:18;;;;;;;2.73;1.33;;;;;;;;;;5211522;27;20516;-76
2024/04/16 17:56:44;;;;;;;3.23;1.37;;;;;;;;;;5181975;27;20513;-76
2024/04/16 17:59:10;;;;;;;2.80;1.20;;;;;;;;;;5211679;27;20505;-77
2024/04/16 18:01:36;;;;;;;2.40;1.60;;;;;;;;;;5212676;27;20862;-76
2024/04/16 18:04:02;;;;;;;3.17;1.40;;;;;;;;;;5185330;27;20461;-76
2024/04/16 18:06:28;;;;;;;2.23;1.40;;;;;;;;;;5207589;27;20485;-76
2024/04/16 18:08:55;;;;;;;7.80;2.03;;;;;;;;;;5213647;27;20449;-76
2024/04/16 18:11:20;;;;;;;3.13;1.33;;;;;;;;;;5213427;27;20452;-76
2024/04/16 18:13:46;;;;;;;1.70;1.60;;;;;;;;;;5212392;27;20965;-76
2024/04/16 18:16:12;;;;;;;3.83;1.43;;;;;;;;;;5212119;27;20860;-76
2024/04/16 18:18:39;;;;;;;3.03;1.70;;;;;;;;;;5216684;27;20437;-76
2024/04/16 18:21:06;;;;;;;2.00;1.10;;;;;;;;;;5227182;27;20563;-77
2024/04/16 18:23:33;;;;;;;2.10;1.27;;;;;;;;;;5216355;27;20560;-76
2024/04/16 18:25:59;;;;;;;1.60;1.30;;;;;;;;;;5183668;27;20481;-77
2024/04/16 18:28:25;;;;;;;3.10;1.20;;;;;;;;;;5182679;27;20509;-77
2024/04/16 18:30:52;;;;;;;2.00;1.53;;;;;;;;;;5210742;27;21032;-77
2024/04/16 18:33:18;;;;;;;3.73;1.63;;;;;;;;;;5213001;27;20469;-77
2024/04/16 18:35:44;;;;;;;6.13;2.97;;;;;;;;;;5215534;27;20652;-77
2024/04/16 18:38:12;;;;;;;4.10;2.40;;;;;;;;;;5212977;27;20465;-77
2024/04/16 18:40:38;;;;;;;1.63;1.57;;;;;;;;;;5211392;27;20457;-77
2024/04/16 18:43:04;;;;;;;3.63;1.60;;;;;;;;;;5211221;27;20507;-79
2024/04/16 18:45:30;;;;;;;1.47;1.40;;;;;;;;;;5215701;27;20465;-77
2024/04/16 18:47:56;;;;;;;2.30;1.50;;;;;;;;;;5218353;27;20577;-77
2024/04/16 18:50:22;;;;;;;2.50;1.87;;;;;;;;;;5218472;27;20481;-77
2024/04/16 18:52:50;;;;;;;1.97;1.40;;;;;;;;;;5199697;27;20541;-77
2024/04/16 18:55:16;;;;;;;3.10;1.60;;;;;;;;;;5218104;27;20589;-78
2024/04/16 18:57:42;;;;;;;1.90;1.17;;;;;;;;;;5222124;27;20476;-77
2024/04/16 19:00:08;;;;;;;4.83;1.40;;;;;;;;;;5217669;27;20910;-77
2024/04/16 19:02:34;;;;;;;3.77;1.63;;;;;;;;;;5221067;27;20546;-77
2024/04/16 19:05:00;;;;;;;2.90;1.50;;;;;;;;;;5211327;27;20478;-77
2024/04/16 19:07:26;;;;;;;2.50;1.47;;;;;;;;;;5192664;27;20453;-78
2024/04/16 19:09:52;;;;;;;2.10;1.40;;;;;;;;;;5193609;27;20989;-78
2024/04/16 19:12:18;;;;;;;2.80;1.13;;;;;;;;;;5193804;27;20568;-78
2024/04/16 19:14:44;;;;;;;1.23;1.20;;;;;;;;;;5226864;27;20481;-77
2024/04/16 19:17:11;;;;;;;5.40;1.30;;;;;;;;;;5195150;27;20548;-78
2024/04/16 19:19:37;;;;;;;2.00;1.00;;;;;;;;;;5197693;27;20513;-78
2024/04/16 19:22:03;;;;;;;1.80;1.43;;;;;;;;;;5225260;27;20457;-77
2024/04/16 19:24:30;;;;;;;1.97;1.40;;;;;;;;;;5220867;27;20465;-77
2024/04/16 19:26:56;;;;;;;2.00;1.67;;;;;;;;;;5187900;27;20466;-77
2024/04/16 19:29:22;;;;;;;2.20;1.60;;;;;;;;;;5188136;27;20563;-77
2024/04/16 19:31:49;;;;;;;1.70;1.60;;;;;;;;;;5188177;27;20450;-77
2024/04/16 19:34:17;;;;;;;2.33;1.67;;;;;;;;;;5189829;27;20454;-77
2024/04/16 19:36:43;;;;;;;1.60;1.50;;;;;;;;;;5192954;27;20502;-77
2024/04/16 19:39:09;;;;;;;2.30;1.40;;;;;;;;;;5194667;27;20496;-77
2024/04/16 19:41:35;;;;;;;1.50;1.40;;;;;;;;;;5188694;27;20514;-76